createdAt,value
2023-05-14T00:04:35.128Z,59.11
2023-05-14T00:09:37.989Z,58.84
2023-05-14T00:14:40.871Z,59.76
2023-05-14T00:19:43.614Z,67.48
2023-05-14T00:24:46.169Z,71.58
2023-05-14T00:29:48.652Z,68.65
2023-05-14T00:34:51.257Z,65.42
2023-05-14T00:39:53.824Z,62.38
2023-05-14T00:44:56.543Z,60.05
2023-05-14T00:49:59.184Z,55.60
2023-05-14T00:55:04.596Z,54.90
2023-05-14T01:00:08.803Z,56.06
2023-05-14T01:05:11.481Z,56.51
2023-05-14T01:10:22.064Z,57.09
2023-05-14T01:15:30.720Z,57.42
2023-05-14T01:20:33.321Z,58.76
2023-05-14T01:25:35.985Z,59.23
2023-05-14T01:31:04.421Z,59.62
2023-05-14T01:36:07.477Z,60.50
2023-05-14T01:41:10.175Z,64.95
2023-05-14T01:46:12.755Z,70.88
2023-05-14T01:51:15.409Z,69.17
2023-05-14T01:56:19.831Z,65.46
2023-05-14T02:01:22.848Z,63.48
2023-05-14T02:06:25.590Z,60.79
2023-05-14T02:11:28.130Z,56.48
2023-05-14T02:16:31.183Z,55.77
2023-05-14T02:21:33.882Z,57.40
2023-05-14T02:26:36.417Z,58.20
2023-05-14T02:31:39.250Z,58.30
2023-05-14T02:36:41.993Z,59.27
2023-05-14T02:41:44.498Z,59.55
2023-05-14T02:46:48.223Z,60.11
2023-05-14T02:51:51.037Z,66.73
2023-05-14T02:56:53.652Z,70.47
2023-05-14T03:01:56.191Z,66.05
2023-05-14T03:06:59.248Z,63.17
2023-05-14T03:12:01.892Z,62.01
2023-05-14T03:17:05.329Z,60.90
2023-05-14T03:22:07.971Z,55.82
2023-05-14T03:27:10.548Z,55.35
2023-05-14T03:32:13.143Z,55.46
2023-05-14T03:37:16.208Z,57.29
2023-05-14T03:42:18.740Z,58.94
2023-05-14T03:47:21.370Z,60.01
2023-05-14T03:52:24.001Z,64.98
2023-05-14T03:57:26.546Z,65.28
2023-05-14T04:02:29.121Z,64.01
2023-05-14T04:07:31.829Z,63.27
2023-05-14T04:12:34.522Z,59.70
2023-05-14T04:17:37.207Z,59.05
2023-05-14T04:22:40.012Z,58.53
2023-05-14T04:27:42.535Z,58.32
2023-05-14T04:32:45.587Z,59.53
2023-05-14T04:37:49.154Z,59.76
2023-05-14T04:42:52.104Z,60.73
2023-05-14T04:47:54.851Z,60.58
2023-05-14T04:52:57.660Z,64.87
2023-05-14T04:58:00.229Z,65.56
2023-05-14T05:03:03.418Z,62.32
2023-05-14T05:08:06.110Z,58.05
2023-05-14T05:13:08.787Z,52.00
2023-05-14T05:18:11.394Z,47.72
2023-05-14T05:23:14.065Z,41.01
2023-05-14T05:28:16.836Z,36.66
2023-05-14T05:33:20.748Z,33.86
2023-05-14T05:38:23.327Z,32.56
2023-05-14T05:43:25.977Z,30.50
2023-05-14T05:48:28.616Z,29.79
2023-05-14T05:53:31.153Z,29.12
2023-05-14T05:58:34.116Z,30.03
2023-05-14T06:03:36.745Z,27.78
2023-05-14T06:08:39.303Z,25.91
2023-05-14T06:13:41.879Z,25.85
2023-05-14T06:18:44.528Z,25.82
2023-05-14T06:23:47.394Z,25.23
2023-05-14T06:28:50.034Z,24.74
2023-05-14T06:33:52.681Z,25.80
2023-05-14T06:38:55.244Z,26.18
2023-05-14T06:43:57.834Z,25.13
2023-05-14T06:49:00.448Z,24.58
2023-05-14T06:54:04.702Z,25.24
2023-05-14T06:59:07.317Z,23.27
2023-05-14T07:04:10.266Z,22.63
2023-05-14T07:09:13.281Z,23.19
2023-05-14T07:14:15.926Z,21.75
2023-05-14T07:19:18.653Z,21.40
2023-05-14T07:24:21.408Z,21.31
2023-05-14T07:29:25.458Z,21.58
2023-05-14T07:34:28.121Z,20.74
2023-05-14T07:39:30.943Z,20.64
2023-05-14T07:44:33.544Z,19.82
2023-05-14T07:49:36.808Z,20.23
2023-05-14T07:54:39.354Z,20.90
2023-05-14T07:59:41.869Z,20.57
2023-05-14T08:04:45.294Z,20.55
2023-05-14T08:09:47.836Z,20.76
2023-05-14T08:14:50.376Z,21.91
2023-05-14T08:19:54.220Z,22.63
2023-05-14T08:24:59.451Z,22.67
2023-05-14T08:30:03.482Z,23.81
2023-05-14T08:35:08.704Z,23.91
2023-05-14T08:40:12.264Z,24.53
2023-05-14T08:45:25.522Z,24.24
2023-05-14T08:50:30.331Z,24.60
2023-05-14T08:55:34.231Z,25.01
2023-05-14T09:00:37.291Z,25.10
2023-05-14T09:05:40.977Z,24.89
2023-05-14T09:10:43.581Z,24.74
2023-05-14T09:15:48.394Z,24.83
2023-05-14T09:20:52.316Z,24.74
2023-05-14T09:25:54.882Z,24.61
2023-05-14T09:30:57.426Z,24.20
2023-05-14T09:36:02.777Z,23.69
2023-05-14T09:41:05.546Z,23.58
2023-05-14T09:46:08.194Z,23.72
2023-05-14T09:51:11.487Z,24.08
2023-05-14T09:56:14.802Z,23.85
2023-05-14T10:01:19.601Z,23.52
2023-05-14T10:06:25.992Z,23.56
2023-05-14T10:11:32.756Z,23.93
2023-05-14T10:16:38.686Z,24.07
2023-05-14T10:21:44.687Z,24.25
2023-05-14T10:26:47.886Z,24.18
2023-05-14T10:31:54.144Z,24.48
2023-05-14T10:37:01.961Z,24.00
2023-05-14T10:42:04.796Z,24.02
2023-05-14T10:47:07.933Z,24.05
2023-05-14T10:52:12.345Z,23.45
2023-05-14T10:57:14.938Z,23.76
2023-05-14T11:02:23.212Z,23.76
2023-05-14T11:07:30.198Z,24.17
2023-05-14T11:12:37.975Z,24.26
2023-05-14T11:17:41.977Z,24.24
2023-05-14T11:22:46.175Z,24.21
2023-05-14T11:27:50.031Z,23.83
2023-05-14T11:32:54.366Z,23.62
2023-05-14T11:37:57.015Z,23.90
2023-05-14T11:42:59.767Z,23.53
2023-05-14T11:48:02.739Z,23.65
2023-05-14T11:53:05.283Z,24.03
2023-05-14T11:58:08.189Z,25.47
2023-05-14T12:03:11.451Z,28.44
2023-05-14T12:08:26.765Z,27.77
2023-05-14T12:13:30.702Z,28.03
2023-05-14T12:18:33.696Z,28.87
2023-05-14T12:23:39.295Z,28.88
2023-05-14T12:28:43.475Z,28.53
2023-05-14T12:33:46.493Z,28.44
2023-05-14T12:38:50.418Z,28.76
2023-05-14T12:43:53.061Z,28.62
2023-05-14T12:48:56.728Z,28.79
2023-05-14T12:53:59.282Z,28.76
2023-05-14T12:59:01.939Z,29.47
2023-05-14T13:04:05.708Z,26.99
2023-05-14T13:09:08.653Z,26.83
2023-05-14T13:14:11.186Z,27.15
2023-05-14T13:19:13.865Z,27.40
2023-05-14T13:24:17.469Z,27.76
2023-05-14T13:29:20.063Z,27.17
2023-05-14T13:34:22.660Z,26.64
2023-05-14T13:39:27.090Z,26.47
2023-05-14T13:44:30.267Z,26.78
2023-05-14T13:49:32.883Z,26.65
2023-05-14T13:54:35.451Z,26.53
2023-05-14T13:59:38.358Z,26.34
2023-05-14T14:04:41.063Z,26.30
2023-05-14T14:09:45.086Z,26.30
2023-05-14T14:14:47.622Z,26.39
2023-05-14T14:19:50.155Z,25.96
2023-05-14T14:24:52.730Z,25.82
2023-05-14T14:29:56.683Z,25.81
2023-05-14T14:34:59.208Z,25.71
2023-05-14T14:40:01.851Z,25.68
2023-05-14T14:45:05.450Z,25.08
2023-05-14T14:50:08.578Z,24.65
2023-05-14T14:55:11.295Z,24.73
2023-05-14T15:00:14.979Z,24.27
2023-05-14T15:05:18.153Z,23.93
2023-05-14T15:10:20.696Z,24.09
2023-05-14T15:15:23.836Z,23.98
2023-05-14T15:20:26.764Z,24.40
2023-05-14T15:25:29.428Z,24.34
2023-05-14T15:30:32.009Z,24.48
2023-05-14T15:35:34.651Z,24.37
2023-05-14T15:40:37.221Z,24.06
2023-05-14T15:45:39.769Z,24.34
2023-05-14T15:50:42.398Z,24.58
2023-05-14T15:55:45.123Z,24.75
2023-05-14T16:00:47.819Z,24.55
2023-05-14T16:05:50.892Z,24.67
2023-05-14T16:10:53.477Z,24.90
2023-05-14T16:15:56.428Z,25.12
2023-05-14T16:20:59.086Z,25.24
2023-05-14T16:26:01.879Z,25.34
2023-05-14T16:31:04.415Z,25.43
2023-05-14T16:36:07.420Z,25.61
2023-05-14T16:41:10.532Z,25.77
2023-05-14T16:46:13.490Z,25.85
2023-05-14T16:51:16.531Z,25.99
2023-05-14T16:56:19.264Z,26.25
2023-05-14T17:01:21.937Z,26.50
2023-05-14T17:06:24.674Z,26.81
2023-05-14T17:11:27.272Z,27.17
2023-05-14T17:16:32.764Z,27.43
2023-05-14T17:21:34.263Z,27.71
2023-05-14T17:26:37.772Z,27.94
2023-05-14T17:31:40.452Z,28.35
2023-05-14T17:36:43.315Z,28.33
2023-05-14T17:41:46.269Z,28.54
2023-05-14T17:46:49.624Z,28.76
2023-05-14T17:51:52.246Z,29.33
2023-05-14T17:56:54.892Z,29.60
2023-05-14T18:01:57.479Z,29.78
2023-05-14T18:07:01.723Z,30.19
2023-05-14T18:12:04.497Z,30.47
2023-05-14T18:17:07.245Z,30.79
2023-05-14T18:22:09.860Z,31.35
2023-05-14T18:27:12.523Z,32.02
2023-05-14T18:32:15.311Z,32.35
2023-05-14T18:37:17.829Z,32.47
2023-05-14T18:42:20.516Z,31.62
2023-05-14T18:47:23.510Z,32.03
2023-05-14T18:52:26.598Z,31.95
2023-05-14T18:57:29.366Z,32.53
2023-05-14T19:02:32.029Z,34.06
2023-05-14T19:07:34.883Z,34.37
2023-05-14T19:12:37.754Z,34.89
2023-05-14T19:17:40.465Z,35.17
2023-05-14T19:22:43.043Z,35.45
2023-05-14T19:27:47.682Z,35.63
2023-05-14T19:32:50.279Z,36.67
2023-05-14T19:37:52.948Z,36.68
2023-05-14T19:42:55.521Z,37.84
2023-05-14T19:47:58.205Z,37.96
2023-05-14T19:53:01.149Z,38.69
2023-05-14T19:58:03.811Z,38.97
2023-05-14T20:03:06.509Z,39.08
2023-05-14T20:08:09.272Z,40.13
2023-05-14T20:13:11.845Z,40.48
2023-05-14T20:18:14.494Z,40.97
2023-05-14T20:23:17.203Z,41.88
2023-05-14T20:28:20.131Z,41.57
2023-05-14T20:33:22.655Z,41.93
2023-05-14T20:38:29.110Z,42.55
2023-05-14T20:43:31.726Z,42.91
2023-05-14T20:48:34.368Z,44.38
2023-05-14T20:53:38.981Z,45.01
2023-05-14T20:58:41.536Z,44.95
2023-05-14T21:03:44.335Z,44.71
2023-05-14T21:08:47.116Z,45.99
2023-05-14T21:13:49.755Z,46.60
2023-05-14T21:18:52.342Z,46.65
2023-05-14T21:23:54.956Z,46.83
2023-05-14T21:28:59.022Z,47.18
2023-05-14T21:34:01.540Z,46.87
2023-05-14T21:39:04.109Z,47.83
2023-05-14T21:44:06.673Z,47.55
2023-05-14T21:49:09.253Z,47.88
2023-05-14T21:54:11.751Z,48.55
2023-05-14T21:59:14.321Z,48.19
2023-05-14T22:04:16.857Z,48.43
2023-05-14T22:09:19.560Z,48.83
2023-05-14T22:14:22.489Z,49.13
2023-05-14T22:19:26.805Z,48.87
2023-05-14T22:24:29.419Z,48.98
2023-05-14T22:29:32.381Z,49.03
2023-05-14T22:34:34.893Z,49.84
2023-05-14T22:39:37.549Z,49.53
2023-05-14T22:44:40.360Z,49.54
2023-05-14T22:49:43.566Z,49.63
2023-05-14T22:54:46.691Z,49.50
2023-05-14T22:59:49.256Z,50.03
2023-05-14T23:04:51.899Z,50.31
2023-05-14T23:09:54.624Z,50.60
2023-05-14T23:14:59.052Z,50.75
2023-05-14T23:20:01.833Z,50.49
2023-05-14T23:25:06.153Z,50.90
2023-05-14T23:30:11.895Z,51.39
2023-05-14T23:35:14.643Z,51.41
2023-05-14T23:40:17.920Z,52.04
2023-05-14T23:45:20.534Z,52.30
2023-05-14T23:50:23.272Z,52.12
2023-05-14T23:55:26.136Z,52.36
